Time;durP1;ratioP1;P1;durP2;ratioP2;P2;SDS_P1;SDS_P2;PMS_P1;PMS_P2;Temp;Humidity;BMP_temperature;BMP_pressure;BME280_temperature;BME280_humidity;BME280_pressure;Samples;Min_cycle;Max_cycle;Signal;HPM_P1;HPM_P2
2022/10/18 00:00:30;;;;;;;3.30;2.37;;;16.10;99.90;;;;;;4198846;28;20214;-80
2022/10/18 00:02:32;;;;;;;4.10;2.50;;;16.00;99.90;;;;;;4193093;28;20209;-79
2022/10/18 00:04:36;;;;;;;3.70;2.70;;;16.00;99.90;;;;;;4197860;28;20230;-79
2022/10/18 00:06:37;;;;;;;5.43;3.30;;;16.00;99.90;;;;;;4194974;28;20201;-79
2022/10/18 00:08:40;;;;;;;4.30;2.67;;;16.00;99.90;;;;;;4189266;28;20258;-79
2022/10/18 00:10:41;;;;;;;4.50;3.03;;;16.10;99.90;;;;;;4189636;28;20297;-79
2022/10/18 00:12:43;;;;;;;3.40;2.50;;;15.90;99.90;;;;;;4188770;28;20210;-79
2022/10/18 00:14:48;;;;;;;3.27;2.77;;;16.00;99.90;;;;;;4195997;28;20291;-79
2022/10/18 00:16:50;;;;;;;3.50;2.40;;;15.90;99.90;;;;;;4194254;28;20239;-79
2022/10/18 00:18:52;;;;;;;4.37;2.70;;;15.90;99.90;;;;;;4199938;28;20239;-79
2022/10/18 00:21:00;;;;;;;4.77;2.73;;;15.90;99.90;;;;;;4195660;28;20324;-79
2022/10/18 00:23:02;;;;;;;4.23;2.53;;;15.90;99.90;;;;;;4202847;28;20219;-79
2022/10/18 00:25:05;;;;;;;3.70;2.60;;;15.90;99.90;;;;;;4192792;28;20317;-79
2022/10/18 00:27:07;;;;;;;3.60;2.77;;;15.90;99.90;;;;;;4192576;28;20221;-79
2022/10/18 00:29:14;;;;;;;4.43;2.83;;;15.80;99.90;;;;;;4191868;28;20606;-79
2022/10/18 00:31:18;;;;;;;3.87;2.83;;;15.80;99.90;;;;;;4182832;28;20641;-79
2022/10/18 00:33:19;;;;;;;4.80;2.80;;;15.80;99.90;;;;;;4185708;28;20208;-79
2022/10/18 00:35:21;;;;;;;3.87;2.37;;;15.80;99.90;;;;;;4187421;28;20226;-79
2022/10/18 00:37:25;;;;;;;5.27;2.63;;;15.80;99.90;;;;;;4190659;28;20214;-79
2022/10/18 00:39:26;;;;;;;3.93;2.43;;;15.80;99.90;;;;;;4185254;28;20234;-79
2022/10/18 00:41:31;;;;;;;4.80;3.10;;;16.00;99.90;;;;;;4189852;28;20216;-79
2022/10/18 00:43:33;;;;;;;5.90;2.50;;;15.80;99.90;;;;;;4192404;28;20287;-79
2022/10/18 00:45:35;;;;;;;3.40;2.70;;;15.80;99.90;;;;;;4190056;28;20612;-79
2022/10/18 00:47:37;;;;;;;3.97;2.80;;;15.80;99.90;;;;;;4188653;28;20213;-79
2022/10/18 00:49:43;;;;;;;3.87;2.50;;;15.80;99.90;;;;;;4187732;28;20230;-79
2022/10/18 00:51:49;;;;;;;3.73;2.70;;;15.60;99.90;;;;;;4188625;28;20205;-79
2022/10/18 00:53:52;;;;;;;3.37;2.70;;;15.80;99.90;;;;;;4193954;28;20552;-79
2022/10/18 00:55:54;;;;;;;3.73;2.43;;;15.70;99.90;;;;;;4185325;28;20260;-79
2022/10/18 00:57:57;;;;;;;4.47;2.70;;;15.80;99.90;;;;;;4188744;28;20211;-79
2022/10/18 00:59:59;;;;;;;4.07;2.93;;;15.70;99.90;;;;;;4194104;28;20620;-79
2022/10/18 01:02:02;;;;;;;3.53;2.37;;;15.70;99.90;;;;;;4190482;28;20660;-80
2022/10/18 01:04:04;;;;;;;4.23;2.57;;;15.70;99.90;;;;;;4186958;28;20645;-79
2022/10/18 01:06:08;;;;;;;4.57;2.80;;;15.70;99.90;;;;;;4185533;28;20297;-79
2022/10/18 01:08:32;;;;;;;4.73;2.47;;;15.70;99.90;;;;;;4186974;28;20216;-79
2022/10/18 01:10:46;;;;;;;3.20;2.33;;;15.70;99.90;;;;;;4188538;28;20219;-79
2022/10/18 01:13:02;;;;;;;3.60;2.67;;;15.70;99.90;;;;;;4182418;28;20218;-79
2022/10/18 01:15:10;;;;;;;3.70;2.80;;;15.70;99.90;;;;;;4186546;28;20211;-80
2022/10/18 01:17:17;;;;;;;5.33;2.93;;;15.70;99.90;;;;;;4189225;28;20583;-79
2022/10/18 01:19:51;;;;;;;3.80;2.80;;;15.70;99.90;;;;;;4191552;28;20293;-79
2022/10/18 01:21:57;;;;;;;4.83;3.17;;;15.70;99.90;;;;;;4156540;28;20300;-79
2022/10/18 01:24:30;;;;;;;4.87;3.20;;;15.70;99.90;;;;;;4189460;28;20283;-79
2022/10/18 01:26:48;;;;;;;4.80;3.40;;;15.70;99.90;;;;;;4184144;28;20213;-79
2022/10/18 01:28:59;;;;;;;4.00;2.83;;;15.60;99.90;;;;;;4186727;28;20236;-79
2022/10/18 01:31:05;;;;;;;6.07;3.30;;;15.60;99.90;;;;;;4189522;28;20286;-80
2022/10/18 01:33:19;;;;;;;5.03;3.30;;;15.60;99.90;;;;;;4186889;28;20231;-79
2022/10/18 01:35:26;;;;;;;5.07;3.30;;;15.60;99.90;;;;;;4185879;28;20225;-79
2022/10/18 01:37:30;;;;;;;5.07;3.47;;;15.60;99.90;;;;;;4188553;28;20577;-79
2022/10/18 01:39:36;;;;;;;4.67;3.40;;;15.60;99.90;;;;;;4189071;28;20257;-79
2022/10/18 01:41:41;;;;;;;5.43;3.60;;;15.60;99.90;;;;;;4195008;28;20232;-79
2022/10/18 01:43:45;;;;;;;5.33;3.53;;;15.50;99.90;;;;;;4186851;28;20753;-80
2022/10/18 01:45:47;;;;;;;5.33;3.43;;;15.50;99.90;;;;;;4191020;28;20213;-79
2022/10/18 01:47:52;;;;;;;4.73;3.30;;;15.60;99.90;;;;;;4185580;28;20292;-80
2022/10/18 01:49:58;;;;;;;6.67;3.77;;;15.50;99.90;;;;;;4191441;28;20285;-79
2022/10/18 01:52:00;;;;;;;3.77;2.80;;;15.50;99.90;;;;;;4181979;28;20259;-79
2022/10/18 01:54:02;;;;;;;5.13;3.40;;;15.60;99.90;;;;;;4184161;28;20605;-79
2022/10/18 01:56:20;;;;;;;3.93;3.10;;;15.60;99.90;;;;;;4185397;28;20210;-79
2022/10/18 01:58:28;;;;;;;4.20;2.83;;;15.60;99.90;;;;;;4187572;28;20236;-79
2022/10/18 02:00:37;;;;;;;5.03;2.97;;;15.60;99.90;;;;;;4190414;28;20213;-79
2022/10/18 02:02:44;;;;;;;5.40;3.40;;;15.50;99.90;;;;;;4179672;28;20201;-80
2022/10/18 02:04:54;;;;;;;4.50;3.10;;;15.60;99.90;;;;;;4186106;28;20220;-79
2022/10/18 02:07:15;;;;;;;6.60;3.10;;;15.60;99.90;;;;;;4183942;28;20230;-79
2022/10/18 02:09:21;;;;;;;3.27;2.50;;;15.60;99.90;;;;;;4181612;28;20742;-79
2022/10/18 02:11:23;;;;;;;5.43;3.13;;;15.60;99.90;;;;;;4192782;28;20287;-79
2022/10/18 02:13:30;;;;;;;4.20;3.00;;;15.60;99.90;;;;;;4188979;28;20701;-80
2022/10/18 02:15:35;;;;;;;3.27;2.50;;;15.60;99.90;;;;;;4189115;28;20583;-79
2022/10/18 02:17:39;;;;;;;4.50;3.00;;;15.60;99.90;;;;;;4191428;28;20205;-79
2022/10/18 02:19:44;;;;;;;3.77;2.70;;;15.60;99.90;;;;;;4190589;28;20229;-80
2022/10/18 02:21:49;;;;;;;3.70;2.73;;;15.60;99.90;;;;;;4197153;28;20213;-79
2022/10/18 02:23:53;;;;;;;3.97;2.87;;;15.60;99.90;;;;;;4188531;28;20263;-79
2022/10/18 02:25:55;;;;;;;4.10;2.60;;;15.70;99.90;;;;;;4190509;28;20205;-79
2022/10/18 02:27:57;;;;;;;3.87;2.70;;;15.60;99.90;;;;;;4191671;28;20202;-78
2022/10/18 02:29:59;;;;;;;3.13;2.83;;;15.60;99.90;;;;;;4198049;28;20234;-79
2022/10/18 02:32:06;;;;;;;4.47;2.80;;;15.60;99.90;;;;;;4204050;28;20217;-80
2022/10/18 02:34:17;;;;;;;4.10;2.60;;;15.60;99.90;;;;;;4200025;28;20774;-79
2022/10/18 02:36:24;;;;;;;3.73;2.80;;;15.60;99.90;;;;;;4191876;28;20219;-79
2022/10/18 02:38:29;;;;;;;3.73;2.47;;;15.60;99.90;;;;;;4189899;28;20606;-79
2022/10/18 02:40:31;;;;;;;4.43;2.43;;;15.60;99.90;;;;;;4195148;28;20210;-79
2022/10/18 02:42:35;;;;;;;4.03;2.63;;;15.60;99.90;;;;;;4183421;28;20586;-79
2022/10/18 02:44:38;;;;;;;3.80;2.63;;;15.60;99.90;;;;;;4185023;28;20236;-79
2022/10/18 02:46:40;;;;;;;4.00;2.67;;;15.50;99.90;;;;;;4192525;28;20314;-80
2022/10/18 02:48:42;;;;;;;3.17;2.33;;;15.60;99.90;;;;;;4189270;28;20231;-80
2022/10/18 02:50:44;;;;;;;4.43;2.70;;;15.60;99.90;;;;;;4186990;28;20691;-79
2022/10/18 02:52:46;;;;;;;3.60;2.43;;;15.60;99.90;;;;;;4198308;28;20209;-79
2022/10/18 02:54:49;;;;;;;3.57;2.47;;;15.60;99.90;;;;;;4199233;28;20238;-80
2022/10/18 02:56:51;;;;;;;4.20;2.80;;;15.60;99.90;;;;;;4196702;28;20206;-78
2022/10/18 02:58:53;;;;;;;3.63;2.60;;;15.60;99.90;;;;;;4195169;28;20244;-79
2022/10/18 03:00:55;;;;;;;3.90;2.70;;;15.60;99.90;;;;;;4199576;28;20213;-79
2022/10/18 03:02:56;;;;;;;4.37;2.70;;;15.60;99.90;;;;;;4201531;28;20205;-80
2022/10/18 03:04:58;;;;;;;3.33;2.40;;;15.60;99.90;;;;;;4202442;28;20234;-81
2022/10/18 03:07:00;;;;;;;4.20;2.70;;;15.60;99.90;;;;;;4196364;28;20202;-80
2022/10/18 03:09:02;;;;;;;3.70;2.80;;;15.60;99.90;;;;;;4196467;28;20232;-79
2022/10/18 03:11:06;;;;;;;3.83;2.40;;;15.60;99.90;;;;;;4212169;28;20240;-79
2022/10/18 03:13:08;;;;;;;3.77;2.53;;;15.60;99.90;;;;;;4200844;28;20204;-79
2022/10/18 03:15:10;;;;;;;4.27;2.80;;;15.60;99.90;;;;;;4193326;28;20817;-79
2022/10/18 03:17:12;;;;;;;3.87;2.43;;;15.60;99.90;;;;;;4195648;28;20284;-79
2022/10/18 03:19:14;;;;;;;3.80;2.73;;;15.60;99.90;;;;;;4194367;28;20226;-79
2022/10/18 03:21:16;;;;;;;3.77;2.60;;;15.60;99.90;;;;;;4191937;28;20301;-79
2022/10/18 03:23:18;;;;;;;4.67;2.73;;;15.60;99.90;;;;;;4185282;28;20202;-79
2022/10/18 03:25:20;;;;;;;3.97;2.70;;;15.60;99.90;;;;;;4191174;28;20246;-79
2022/10/18 03:27:23;;;;;;;2.83;2.30;;;15.60;99.90;;;;;;4187974;28;20215;-80
2022/10/18 03:29:25;;;;;;;3.23;2.47;;;15.70;99.90;;;;;;4193056;28;20229;-80
2022/10/18 03:31:27;;;;;;;5.20;2.63;;;15.70;99.90;;;;;;4195066;28;20230;-80
2022/10/18 03:33:29;;;;;;;3.70;2.53;;;15.70;99.90;;;;;;4196387;28;20870;-79
2022/10/18 03:35:31;;;;;;;3.57;2.50;;;15.70;99.90;;;;;;4191373;28;20213;-79
2022/10/18 03:37:33;;;;;;;3.20;2.77;;;15.70;99.90;;;;;;4190965;28;20294;-80
2022/10/18 03:39:35;;;;;;;2.83;2.30;;;15.70;99.90;;;;;;4183749;28;20295;-79
2022/10/18 03:41:37;;;;;;;3.90;2.80;;;15.70;99.90;;;;;;4188838;28;20206;-79
2022/10/18 03:43:40;;;;;;;3.50;2.60;;;15.70;99.90;;;;;;4194999;28;20209;-79
2022/10/18 03:45:43;;;;;;;4.03;2.70;;;15.70;99.90;;;;;;4190075;28;20632;-79
2022/10/18 03:47:44;;;;;;;4.27;2.80;;;15.70;99.90;;;;;;4191798;28;20264;-78
2022/10/18 03:49:46;;;;;;;2.97;2.33;;;15.60;99.90;;;;;;4190447;28;20573;-79
2022/10/18 03:51:48;;;;;;;3.67;2.70;;;15.70;99.90;;;;;;4190815;28;20300;-79
2022/10/18 03:53:50;;;;;;;4.10;2.80;;;15.60;99.90;;;;;;4190873;28;20308;-79
2022/10/18 03:55:53;;;;;;;3.53;2.70;;;15.70;99.90;;;;;;4191973;28;20228;-79
2022/10/18 03:57:55;;;;;;;3.83;2.87;;;15.70;99.90;;;;;;4190534;28;20206;-79
2022/10/18 03:59:58;;;;;;;3.70;2.67;;;15.70;99.90;;;;;;4191481;28;20233;-79
2022/10/18 04:02:00;;;;;;;3.87;2.50;;;15.70;99.90;;;;;;4197834;28;20699;-79
2022/10/18 04:04:02;;;;;;;2.93;2.33;;;15.70;99.90;;;;;;4199580;28;20788;-79
2022/10/18 04:06:04;;;;;;;3.30;2.43;;;15.70;99.90;;;;;;4183253;28;20234;-79
2022/10/18 04:08:06;;;;;;;2.80;2.20;;;15.70;99.90;;;;;;4196293;28;20217;-80
2022/10/18 04:10:08;;;;;;;3.77;2.50;;;15.70;99.90;;;;;;4187258;28;20202;-79
2022/10/18 04:12:10;;;;;;;3.73;2.60;;;15.70;99.90;;;;;;4191053;28;20505;-79
2022/10/18 04:14:12;;;;;;;3.23;2.30;;;15.80;99.90;;;;;;4186125;28;20201;-79
2022/10/18 04:16:15;;;;;;;3.90;2.50;;;15.70;99.90;;;;;;4188806;28;20202;-79
2022/10/18 04:18:17;;;;;;;3.83;2.60;;;15.80;99.90;;;;;;4187298;28;20267;-79
2022/10/18 04:20:19;;;;;;;3.70;2.53;;;15.70;99.90;;;;;;4191489;28;20272;-79
2022/10/18 04:22:21;;;;;;;3.30;2.63;;;15.80;99.90;;;;;;4192970;28;20226;-79
2022/10/18 04:24:23;;;;;;;3.03;2.50;;;15.70;99.90;;;;;;4191090;28;20201;-80
2022/10/18 04:26:25;;;;;;;3.17;2.60;;;15.70;99.90;;;;;;4186703;28;20310;-80
2022/10/18 04:28:27;;;;;;;2.90;2.60;;;15.70;99.90;;;;;;4195373;28;20234;-80
2022/10/18 04:30:29;;;;;;;4.27;2.60;;;15.70;99.90;;;;;;4184512;28;20628;-79
2022/10/18 04:32:33;;;;;;;2.83;2.37;;;15.70;99.90;;;;;;4188142;28;20240;-80
2022/10/18 04:34:35;;;;;;;2.87;2.27;;;15.80;99.90;;;;;;4181080;28;20281;-79
2022/10/18 04:36:37;;;;;;;3.67;2.77;;;15.80;99.90;;;;;;4186602;28;20212;-79
2022/10/18 04:38:39;;;;;;;3.20;2.33;;;15.80;99.90;;;;;;4181909;28;20329;-81
2022/10/18 04:40:41;;;;;;;3.80;2.60;;;15.80;99.90;;;;;;4187893;28;20201;-79
2022/10/18 04:42:43;;;;;;;2.43;2.10;;;15.80;99.90;;;;;;4187277;28;20749;-79
2022/10/18 04:44:45;;;;;;;3.40;2.43;;;15.80;99.90;;;;;;4187039;28;20206;-79
2022/10/18 04:46:47;;;;;;;3.73;2.33;;;15.80;99.90;;;;;;4196978;28;20679;-79
2022/10/18 04:48:50;;;;;;;3.80;2.60;;;15.80;99.90;;;;;;4190014;28;20590;-79
2022/10/18 04:50:52;;;;;;;3.00;2.50;;;15.80;99.90;;;;;;4190544;28;20193;-79
2022/10/18 04:52:54;;;;;;;3.83;2.80;;;15.80;99.90;;;;;;4191103;28;20261;-79
2022/10/18 04:54:56;;;;;;;3.80;2.63;;;15.80;99.90;;;;;;4192680;28;20280;-79
2022/10/18 04:56:57;;;;;;;2.47;2.00;;;15.80;99.90;;;;;;4196038;28;20198;-79
2022/10/18 04:58:59;;;;;;;3.33;2.40;;;15.90;99.90;;;;;;4198187;28;20236;-80
2022/10/18 05:01:05;;;;;;;4.20;2.70;;;15.80;99.90;;;;;;4200158;28;20466;-81
2022/10/18 05:03:07;;;;;;;3.20;2.33;;;15.80;99.90;;;;;;4200798;28;20228;-81
2022/10/18 05:05:10;;;;;;;4.20;2.60;;;15.80;99.90;;;;;;4199645;28;20226;-81
2022/10/18 05:07:12;;;;;;;3.57;2.83;;;15.90;99.90;;;;;;4202029;28;20220;-81
2022/10/18 05:09:14;;;;;;;3.67;2.40;;;15.80;99.90;;;;;;4202875;28;20222;-81
2022/10/18 05:11:16;;;;;;;3.70;2.80;;;15.90;99.90;;;;;;4202604;28;20211;-80
2022/10/18 05:13:18;;;;;;;4.20;2.60;;;15.90;99.90;;;;;;4197675;28;20213;-80
2022/10/18 05:15:20;;;;;;;2.97;2.40;;;15.80;99.90;;;;;;4200775;28;20205;-81
2022/10/18 05:17:22;;;;;;;3.57;2.33;;;15.90;99.90;;;;;;4197417;28;20605;-80
2022/10/18 05:19:24;;;;;;;4.33;2.90;;;15.80;99.90;;;;;;4198713;28;20245;-81
2022/10/18 05:21:27;;;;;;;3.57;2.50;;;15.90;99.90;;;;;;4196464;28;20206;-79
2022/10/18 05:23:29;;;;;;;3.57;2.67;;;15.90;99.90;;;;;;4186690;28;20210;-79
2022/10/18 05:25:31;;;;;;;3.13;2.53;;;15.90;99.90;;;;;;4193897;28;20279;-79
2022/10/18 05:27:33;;;;;;;3.03;2.30;;;15.90;99.90;;;;;;4195404;28;20308;-80
2022/10/18 05:29:35;;;;;;;3.10;2.60;;;15.90;99.90;;;;;;4194812;28;20325;-79
2022/10/18 05:31:37;;;;;;;4.57;2.93;;;15.90;99.90;;;;;;4187532;28;20289;-80
2022/10/18 05:33:39;;;;;;;3.90;2.80;;;15.90;99.90;;;;;;4186881;28;20210;-80
2022/10/18 05:35:41;;;;;;;3.47;2.40;;;15.90;99.90;;;;;;4183846;28;20238;-80
2022/10/18 05:37:44;;;;;;;2.50;2.00;;;15.90;99.90;;;;;;4189827;28;20206;-79
2022/10/18 05:39:46;;;;;;;3.90;2.60;;;15.90;99.90;;;;;;4199219;28;20226;-81
2022/10/18 05:41:48;;;;;;;2.87;2.47;;;15.90;99.90;;;;;;4197185;28;20273;-77
2022/10/18 05:43:50;;;;;;;3.93;2.50;;;15.90;99.90;;;;;;4194741;28;20261;-80
2022/10/18 05:45:52;;;;;;;3.80;2.53;;;15.90;99.90;;;;;;4193675;28;20308;-81
2022/10/18 05:47:54;;;;;;;5.97;2.87;;;15.90;99.90;;;;;;4187583;28;20206;-81
2022/10/18 05:49:59;;;;;;;2.80;2.43;;;15.90;99.90;;;;;;4188806;28;20230;-79
2022/10/18 05:52:01;;;;;;;3.13;2.47;;;15.90;99.90;;;;;;4188521;28;20237;-80
2022/10/18 05:54:04;;;;;;;3.27;2.30;;;15.90;99.90;;;;;;4184854;28;20244;-79
2022/10/18 05:56:07;;;;;;;3.43;2.57;;;15.90;99.90;;;;;;4192521;28;20220;-80
2022/10/18 05:58:09;;;;;;;3.53;2.60;;;15.90;99.90;;;;;;4189709;28;20746;-80
2022/10/18 06:00:12;;;;;;;3.23;2.50;;;16.00;99.90;;;;;;4190065;28;20216;-80
2022/10/18 06:02:14;;;;;;;3.00;2.00;;;15.90;99.90;;;;;;4193845;28;20259;-80
2022/10/18 06:04:16;;;;;;;3.17;2.30;;;15.90;99.90;;;;;;4192727;28;20222;-80
2022/10/18 06:06:19;;;;;;;2.73;2.00;;;16.00;99.90;;;;;;4192083;28;20231;-81
2022/10/18 06:08:21;;;;;;;3.50;2.60;;;16.00;99.90;;;;;;4187138;28;20988;-81
2022/10/18 06:10:24;;;;;;;2.60;2.30;;;16.00;99.90;;;;;;4191458;28;20225;-81
2022/10/18 06:12:26;;;;;;;3.17;2.27;;;16.00;99.90;;;;;;4199418;28;20209;-81
2022/10/18 06:14:28;;;;;;;3.17;2.50;;;16.10;99.90;;;;;;4202838;28;20280;-81
2022/10/18 06:16:30;;;;;;;3.13;2.40;;;16.00;99.90;;;;;;4190298;28;20234;-80
2022/10/18 06:18:32;;;;;;;2.80;2.20;;;16.00;99.90;;;;;;4190526;28;20317;-81
2022/10/18 06:20:34;;;;;;;3.53;2.60;;;16.00;99.90;;;;;;4186461;28;20218;-80
2022/10/18 06:22:36;;;;;;;3.70;2.90;;;16.10;99.90;;;;;;4193294;28;20620;-80
2022/10/18 06:24:38;;;;;;;3.50;2.67;;;16.10;99.90;;;;;;4191130;28;20592;-80
2022/10/18 06:26:41;;;;;;;3.53;2.97;;;16.10;99.90;;;;;;4188151;28;20218;-80
2022/10/18 06:28:43;;;;;;;3.53;2.57;;;16.10;99.90;;;;;;4183996;28;20669;-80
2022/10/18 06:30:45;;;;;;;4.27;3.03;;;16.10;99.90;;;;;;4187467;28;20202;-79
2022/10/18 06:32:47;;;;;;;4.17;2.87;;;16.10;99.90;;;;;;4192039;28;20203;-80
2022/10/18 06:34:49;;;;;;;4.60;2.90;;;16.10;99.90;;;;;;4188756;28;20581;-80
2022/10/18 06:36:51;;;;;;;4.50;3.20;;;16.10;99.90;;;;;;4188694;28;20206;-80
2022/10/18 06:38:53;;;;;;;4.37;2.87;;;16.20;99.90;;;;;;4194701;28;20228;-80
2022/10/18 06:40:55;;;;;;;3.87;2.90;;;16.20;99.90;;;;;;4195219;28;20211;-80
2022/10/18 06:43:00;;;;;;;4.20;3.20;;;16.20;99.90;;;;;;4192866;28;20217;-80
2022/10/18 06:45:02;;;;;;;4.97;3.00;;;16.20;99.90;;;;;;4190549;28;20259;-80
2022/10/18 06:47:04;;;;;;;4.53;3.40;;;16.20;99.90;;;;;;4196611;28;20221;-80
2022/10/18 06:49:06;;;;;;;5.00;3.57;;;16.20;99.90;;;;;;4193382;28;20267;-80
2022/10/18 06:51:08;;;;;;;5.20;3.40;;;16.20;99.90;;;;;;4194716;28;20257;-80
2022/10/18 06:53:10;;;;;;;5.27;3.50;;;16.20;99.90;;;;;;4191012;28;20216;-80
2022/10/18 06:55:12;;;;;;;4.00;3.27;;;16.20;99.90;;;;;;4191849;28;20226;-80
2022/10/18 06:57:14;;;;;;;5.43;3.70;;;16.30;99.90;;;;;;4188749;28;20298;-80
2022/10/18 06:59:17;;;;;;;5.27;4.13;;;16.30;99.90;;;;;;4194591;28;20232;-80
2022/10/18 07:01:20;;;;;;;4.70;3.27;;;16.30;99.90;;;;;;4195703;28;20208;-80
2022/10/18 07:03:22;;;;;;;5.40;3.87;;;16.30;99.90;;;;;;4186115;28;20214;-80
2022/10/18 07:05:24;;;;;;;5.53;3.43;;;16.30;99.90;;;;;;4190986;28;20280;-79
2022/10/18 07:07:26;;;;;;;4.63;3.60;;;16.30;99.90;;;;;;4197033;28;20222;-80
2022/10/18 07:09:28;;;;;;;5.57;3.47;;;16.30;99.90;;;;;;4194320;28;20223;-80
2022/10/18 07:11:30;;;;;;;5.50;3.57;;;16.40;99.90;;;;;;4193975;28;20209;-80
2022/10/18 07:13:32;;;;;;;5.77;4.20;;;16.40;99.90;;;;;;4197058;28;20227;-79
2022/10/18 07:15:37;;;;;;;5.07;3.90;;;16.40;99.90;;;;;;4196360;28;20241;-80
2022/10/18 07:17:40;;;;;;;6.33;4.70;;;16.40;99.90;;;;;;4194359;28;20228;-80
2022/10/18 07:19:42;;;;;;;6.47;4.20;;;16.40;99.90;;;;;;4193617;28;20767;-80
2022/10/18 07:21:44;;;;;;;7.30;4.83;;;16.40;99.90;;;;;;4197038;28;20288;-80
2022/10/18 07:23:47;;;;;;;7.10;4.63;;;16.40;99.90;;;;;;4191202;28;20240;-79
2022/10/18 07:25:48;;;;;;;7.30;5.10;;;16.40;99.90;;;;;;4197169;28;20199;-80
2022/10/18 07:27:51;;;;;;;6.03;4.57;;;16.40;99.90;;;;;;4194278;28;20218;-80
2022/10/18 07:29:53;;;;;;;6.43;4.83;;;16.50;99.90;;;;;;4197644;28;20238;-79
2022/10/18 07:31:56;;;;;;;8.43;5.10;;;16.40;99.90;;;;;;4201995;28;20230;-80
2022/10/18 07:33:58;;;;;;;8.80;6.27;;;16.50;99.90;;;;;;4196911;28;20222;-80
2022/10/18 07:36:02;;;;;;;8.23;5.63;;;16.50;99.90;;;;;;4200167;28;20209;-79
2022/10/18 07:38:03;;;;;;;9.90;6.30;;;16.50;99.90;;;;;;4201109;28;20216;-80
2022/10/18 07:40:06;;;;;;;8.43;6.07;;;16.40;99.90;;;;;;4198930;28;20217;-79
2022/10/18 07:42:08;;;;;;;13.03;7.77;;;16.40;99.90;;;;;;4204796;28;20213;-80
2022/10/18 07:44:10;;;;;;;11.83;7.67;;;16.40;99.90;;;;;;4206630;28;20202;-80
2022/10/18 07:46:13;;;;;;;12.10;8.20;;;16.40;99.90;;;;;;4206320;28;20222;-80
2022/10/18 07:48:16;;;;;;;11.03;7.33;;;16.40;99.90;;;;;;4209808;28;20218;-79
2022/10/18 07:50:18;;;;;;;11.73;7.20;;;16.40;99.90;;;;;;4202850;28;20202;-80
2022/10/18 07:52:20;;;;;;;9.90;6.90;;;16.40;99.90;;;;;;4202778;28;20209;-80
2022/10/18 07:54:22;;;;;;;9.43;6.10;;;16.40;99.90;;;;;;4204203;28;20216;-80
2022/10/18 07:56:24;;;;;;;7.93;5.30;;;16.40;99.90;;;;;;4201584;28;20269;-80
2022/10/18 07:58:26;;;;;;;8.80;6.00;;;16.30;99.90;;;;;;4200283;28;20622;-80
2022/10/18 08:00:28;;;;;;;11.70;6.03;;;16.30;99.90;;;;;;4189578;28;20206;-79
2022/10/18 08:02:30;;;;;;;9.40;4.87;;;16.20;99.90;;;;;;4194961;28;20222;-79
2022/10/18 08:04:34;;;;;;;7.70;4.27;;;16.30;99.90;;;;;;4205108;28;20202;-80
2022/10/18 08:06:36;;;;;;;6.90;4.27;;;15.90;99.90;;;;;;4199020;28;20236;-81
2022/10/18 08:08:39;;;;;;;6.90;4.57;;;15.90;99.90;;;;;;4204946;28;20289;-80
2022/10/18 08:10:41;;;;;;;7.37;3.47;;;15.80;99.90;;;;;;4200481;28;21123;-79
2022/10/18 08:12:43;;;;;;;7.50;3.80;;;15.70;99.90;;;;;;4202989;28;20208;-78
2022/10/18 08:14:45;;;;;;;6.60;3.77;;;15.70;99.90;;;;;;4197140;28;20214;-78
2022/10/18 08:16:47;;;;;;;6.40;3.33;;;15.60;99.90;;;;;;4195034;28;20257;-78
2022/10/18 08:18:49;;;;;;;6.37;3.47;;;15.60;99.90;;;;;;4190115;28;20614;-79
2022/10/18 08:20:52;;;;;;;5.27;3.70;;;15.60;99.90;;;;;;4189797;28;20225;-79
2022/10/18 08:22:54;;;;;;;6.83;3.53;;;15.50;99.90;;;;;;4191702;28;20231;-79
2022/10/18 08:24:56;;;;;;;6.83;4.00;;;15.50;99.90;;;;;;4189989;28;20226;-79
2022/10/18 08:26:58;;;;;;;4.23;3.27;;;15.50;99.90;;;;;;4183259;28;20770;-77
2022/10/18 08:29:00;;;;;;;7.07;3.33;;;15.50;99.90;;;;;;4189502;28;20287;-77
2022/10/18 08:31:03;;;;;;;6.17;2.97;;;15.40;99.90;;;;;;4191575;28;20208;-77
2022/10/18 08:33:05;;;;;;;3.83;3.00;;;15.40;99.90;;;;;;4190032;28;20212;-77
2022/10/18 08:35:08;;;;;;;4.83;3.27;;;15.50;99.90;;;;;;4186937;28;20599;-78
2022/10/18 08:37:11;;;;;;;4.37;3.30;;;15.40;99.90;;;;;;4190467;28;20288;-78
2022/10/18 08:39:13;;;;;;;4.83;3.10;;;15.40;99.90;;;;;;4187491;28;20590;-78
2022/10/18 08:41:38;;;;;;;4.33;3.27;;;15.40;99.90;;;;;;4191489;28;20201;-78
2022/10/18 08:43:47;;;;;;;4.27;2.87;;;15.30;99.90;;;;;;4190085;28;20625;-77
2022/10/18 08:45:50;;;;;;;7.30;3.20;;;15.30;99.90;;;;;;4193600;28;20217;-78
2022/10/18 08:47:56;;;;;;;3.40;2.80;;;15.30;99.90;;;;;;4189972;28;20306;-77
2022/10/18 08:50:02;;;;;;;4.03;3.10;;;15.30;99.90;;;;;;4188953;28;20204;-79
2022/10/18 08:52:12;;;;;;;4.63;3.00;;;15.20;99.90;;;;;;4188721;28;20202;-77
2022/10/18 08:54:22;;;;;;;4.10;2.63;;;15.20;99.90;;;;;;4189006;28;20228;-76
2022/10/18 08:56:25;;;;;;;4.03;2.80;;;15.20;99.90;;;;;;4188594;28;20210;-76
2022/10/18 08:58:31;;;;;;;3.63;2.73;;;15.20;99.90;;;;;;4189600;28;20231;-76
2022/10/18 09:00:37;;;;;;;3.63;2.70;;;15.20;99.90;;;;;;4191572;28;20304;-77
2022/10/18 09:02:52;;;;;;;2.90;2.27;;;15.20;99.90;;;;;;4191261;28;20207;-76
2022/10/18 09:05:03;;;;;;;3.33;2.43;;;15.20;99.90;;;;;;4189894;28;20225;-77
2022/10/18 09:07:27;;;;;;;2.80;2.50;;;15.20;99.90;;;;;;4183599;28;20217;-76
2022/10/18 09:09:38;;;;;;;3.27;2.23;;;15.10;99.90;;;;;;4188783;28;20315;-76
2022/10/18 09:11:55;;;;;;;3.00;2.40;;;15.10;99.90;;;;;;4193063;28;20205;-76
2022/10/18 09:14:18;;;;;;;5.57;2.63;;;15.10;99.90;;;;;;4185923;28;20645;-76
2022/10/18 09:16:24;;;;;;;3.83;2.70;;;15.10;99.90;;;;;;4183676;28;20287;-77
2022/10/18 09:18:44;;;;;;;3.57;2.40;;;15.10;99.90;;;;;;4186849;28;20290;-78
2022/10/18 09:20:51;;;;;;;3.57;2.40;;;15.20;99.90;;;;;;4190448;28;20235;-76
2022/10/18 09:22:55;;;;;;;3.03;2.33;;;15.20;99.90;;;;;;4183652;28;20592;-77
2022/10/18 09:25:11;;;;;;;3.37;2.30;;;15.10;99.90;;;;;;4189662;28;20206;-77
2022/10/18 09:27:16;;;;;;;2.83;2.23;;;15.10;99.90;;;;;;4186847;28;20216;-79
2022/10/18 09:29:36;;;;;;;3.90;2.30;;;15.20;99.90;;;;;;4188730;28;20766;-76
2022/10/18 09:31:46;;;;;;;3.40;2.27;;;15.20;99.90;;;;;;4190627;28;20255;-82
2022/10/18 09:33:53;;;;;;;3.27;2.10;;;15.20;99.90;;;;;;4187963;28;20213;-78
2022/10/18 09:35:57;;;;;;;4.20;2.10;;;15.20;99.90;;;;;;4184944;28;20281;-78
2022/10/18 09:38:04;;;;;;;3.20;2.03;;;15.20;99.90;;;;;;4188132;28;20236;-76
2022/10/18 09:40:16;;;;;;;2.63;2.00;;;15.20;99.90;;;;;;4184798;28;20450;-78
2022/10/18 09:42:25;;;;;;;3.70;2.43;;;15.30;99.90;;;;;;4183764;28;20200;-76
2022/10/18 09:44:31;;;;;;;2.57;2.10;;;15.30;99.90;;;;;;4188916;28;20248;-77
2022/10/18 09:46:39;;;;;;;3.47;2.40;;;15.30;99.90;;;;;;4188462;28;20213;-77
2022/10/18 09:48:46;;;;;;;3.43;2.50;;;15.30;99.90;;;;;;4184506;28;20305;-78
2022/10/18 09:50:54;;;;;;;2.90;2.20;;;15.30;99.90;;;;;;4184638;28;20659;-77
2022/10/18 09:53:06;;;;;;;2.70;2.20;;;15.30;99.90;;;;;;4200520;28;20758;-77
2022/10/18 09:55:18;;;;;;;2.63;2.13;;;15.40;99.90;;;;;;4185889;28;20212;-77
2022/10/18 09:57:27;;;;;;;3.00;2.20;;;15.40;99.90;;;;;;4187729;28;20206;-76
2022/10/18 09:59:40;;;;;;;2.77;2.37;;;15.40;99.90;;;;;;4183462;28;20231;-78
2022/10/18 10:01:43;;;;;;;2.67;2.10;;;15.30;99.90;;;;;;4191169;28;20202;-77
2022/10/18 10:03:45;;;;;;;2.77;2.03;;;15.50;99.90;;;;;;4188479;28;20197;-77
2022/10/18 10:05:47;;;;;;;2.77;2.20;;;15.50;99.90;;;;;;4186062;28;20220;-79
2022/10/18 10:07:52;;;;;;;2.90;2.30;;;15.50;99.90;;;;;;4182878;28;20218;-77
2022/10/18 10:09:58;;;;;;;2.57;2.17;;;15.60;99.90;;;;;;4186762;28;20220;-77
2022/10/18 10:12:01;;;;;;;2.33;1.93;;;15.70;99.90;;;;;;4187265;28;20248;-78
2022/10/18 10:14:13;;;;;;;3.07;1.90;;;15.50;99.90;;;;;;4180653;28;20637;-77
2022/10/18 10:16:15;;;;;;;3.53;2.03;;;15.60;99.90;;;;;;4187630;28;20267;-77
2022/10/18 10:18:20;;;;;;;3.23;2.30;;;15.60;99.90;;;;;;4188564;28;20231;-77
2022/10/18 10:20:24;;;;;;;2.50;1.90;;;15.50;99.90;;;;;;4188659;28;20214;-79
2022/10/18 10:22:31;;;;;;;2.60;2.13;;;15.60;99.90;;;;;;4189520;28;20211;-77
2022/10/18 10:24:48;;;;;;;2.57;1.87;;;15.60;99.90;;;;;;4184290;28;20209;-77
2022/10/18 10:26:50;;;;;;;2.83;2.10;;;15.60;99.90;;;;;;4186278;28;20280;-80
2022/10/18 10:28:53;;;;;;;3.03;2.20;;;15.60;99.90;;;;;;4185881;28;20243;-77
2022/10/18 10:31:15;;;;;;;2.60;1.97;;;15.60;99.90;;;;;;4184641;28;20201;-79
2022/10/18 10:33:35;;;;;;;2.60;1.87;;;15.70;99.90;;;;;;4185291;28;20568;-77
2022/10/18 10:35:39;;;;;;;2.47;1.77;;;15.70;99.90;;;;;;4185034;28;20206;-76
2022/10/18 10:37:41;;;;;;;2.60;2.07;;;15.70;99.90;;;;;;4183276;28;20202;-76
2022/10/18 10:39:43;;;;;;;2.10;1.80;;;15.70;99.90;;;;;;4187331;28;20225;-77
2022/10/18 10:41:48;;;;;;;2.37;1.93;;;15.70;99.90;;;;;;4190674;28;20801;-76
2022/10/18 10:43:50;;;;;;;2.17;1.93;;;15.80;99.90;;;;;;4191648;28;20233;-77
2022/10/18 10:46:01;;;;;;;3.33;2.53;;;15.80;99.90;;;;;;4191015;28;20826;-76